Time;durP1;ratioP1;P1;durP2;ratioP2;P2;SDS_P1;SDS_P2;PMS_P1;PMS_P2;Temp;Humidity;BMP_temperature;BMP_pressure;BME280_temperature;BME280_humidity;BME280_pressure;Samples;Min_cycle;Max_cycle;Signal;HPM_P1;HPM_P2
2021/10/22 00:00:34;;;;;;;4.47;1.23;;;8.10;99.90;;;;;;4955387;28;20242;-63
2021/10/22 00:03:00;;;;;;;2.93;1.10;;;8.10;99.90;;;;;;4959450;28;20211;-64
2021/10/22 00:05:32;;;;;;;2.80;1.57;;;8.10;99.90;;;;;;4958170;28;21091;-64
2021/10/22 00:07:58;;;;;;;3.63;1.60;;;8.10;99.90;;;;;;4958424;28;20255;-63
2021/10/22 00:10:26;;;;;;;5.33;1.30;;;8.10;99.90;;;;;;4958194;28;20725;-65
2021/10/22 00:12:54;;;;;;;4.83;1.57;;;8.10;99.90;;;;;;4956952;28;20192;-64
2021/10/22 00:15:22;;;;;;;6.53;1.47;;;8.10;99.90;;;;;;4952207;28;20646;-63
2021/10/22 00:17:48;;;;;;;4.70;1.87;;;8.10;99.90;;;;;;4957930;28;20661;-64
2021/10/22 00:20:16;;;;;;;4.77;1.90;;;8.20;99.90;;;;;;4958932;28;20645;-64
2021/10/22 00:22:44;;;;;;;9.70;2.03;;;8.20;99.90;;;;;;4963391;28;20192;-64
2021/10/22 00:25:10;;;;;;;3.07;1.37;;;8.20;99.90;;;;;;4955688;28;20694;-64
2021/10/22 00:27:36;;;;;;;5.67;1.80;;;8.20;99.90;;;;;;4956900;28;20640;-64
2021/10/22 00:30:10;;;;;;;6.50;2.10;;;8.20;99.90;;;;;;4956852;28;20602;-63
2021/10/22 00:32:42;;;;;;;4.07;1.53;;;8.30;99.90;;;;;;4954727;28;20760;-64
2021/10/22 00:35:10;;;;;;;5.17;1.90;;;8.20;99.90;;;;;;4957797;28;20650;-64
2021/10/22 00:37:38;;;;;;;5.70;1.97;;;8.20;99.90;;;;;;4957105;28;20611;-64
2021/10/22 00:40:05;;;;;;;3.53;1.50;;;8.20;99.90;;;;;;4957904;28;20622;-64
2021/10/22 00:42:33;;;;;;;5.10;1.63;;;8.20;99.90;;;;;;4955262;28;20622;-64
2021/10/22 00:44:59;;;;;;;4.33;1.63;;;8.20;99.90;;;;;;4956933;28;20646;-64
2021/10/22 00:47:25;;;;;;;7.90;2.07;;;8.10;99.90;;;;;;4964708;28;20652;-64
2021/10/22 00:49:53;;;;;;;7.80;2.53;;;8.20;99.90;;;;;;4962137;28;20702;-62
2021/10/22 00:52:25;;;;;;;4.33;1.60;;;8.20;99.90;;;;;;4959876;28;20187;-64
2021/10/22 00:54:54;;;;;;;9.23;2.53;;;8.10;99.90;;;;;;4967257;28;20622;-64
2021/10/22 00:57:20;;;;;;;3.57;1.63;;;8.10;99.90;;;;;;4961060;28;20674;-64
2021/10/22 00:59:47;;;;;;;6.37;1.70;;;8.10;99.90;;;;;;4960213;28;20728;-64
2021/10/22 01:02:17;;;;;;;6.80;1.43;;;8.00;99.90;;;;;;4960384;28;20630;-64
2021/10/22 01:04:44;;;;;;;5.03;2.00;;;8.00;99.90;;;;;;4961341;28;20655;-64
2021/10/22 01:07:14;;;;;;;6.67;1.73;;;8.10;99.90;;;;;;4959097;28;20669;-64
2021/10/22 01:09:41;;;;;;;5.30;1.87;;;8.10;99.90;;;;;;4958894;28;20595;-64
2021/10/22 01:12:11;;;;;;;3.00;1.60;;;8.30;99.90;;;;;;4959085;28;21074;-64
2021/10/22 01:14:40;;;;;;;3.57;1.20;;;8.10;99.90;;;;;;4977256;28;20615;-64
2021/10/22 01:17:06;;;;;;;5.27;1.40;;;8.00;99.90;;;;;;4960662;28;20650;-64
2021/10/22 01:19:32;;;;;;;5.90;1.93;;;8.00;99.90;;;;;;4966826;28;20631;-63
2021/10/22 01:22:00;;;;;;;3.27;1.30;;;8.10;99.90;;;;;;4961208;28;20316;-62
2021/10/22 01:24:26;;;;;;;4.60;1.20;;;8.00;99.90;;;;;;4974338;28;20654;-63
2021/10/22 01:26:54;;;;;;;3.90;1.33;;;8.00;99.90;;;;;;4962282;28;20744;-63
2021/10/22 01:29:20;;;;;;;3.97;1.27;;;8.10;99.90;;;;;;4959983;28;21101;-63
2021/10/22 01:31:46;;;;;;;3.97;1.63;;;8.10;99.90;;;;;;4957502;28;20639;-63
2021/10/22 01:34:12;;;;;;;3.87;1.77;;;8.10;99.90;;;;;;4961210;28;20682;-64
2021/10/22 01:36:40;;;;;;;5.27;1.27;;;8.10;99.90;;;;;;4975859;28;20211;-64
2021/10/22 01:39:06;;;;;;;3.60;1.17;;;8.10;99.90;;;;;;4960626;28;20649;-64
2021/10/22 01:41:34;;;;;;;6.87;1.40;;;8.10;99.90;;;;;;4959845;28;20639;-63
2021/10/22 01:44:06;;;;;;;3.70;1.30;;;8.00;99.90;;;;;;4957824;28;20219;-64
2021/10/22 01:46:32;;;;;;;4.63;1.33;;;8.00;99.90;;;;;;4960956;28;21177;-64
2021/10/22 01:48:58;;;;;;;3.90;1.20;;;7.90;99.90;;;;;;4960186;28;20624;-64
2021/10/22 01:51:24;;;;;;;4.47;1.40;;;8.00;99.90;;;;;;4960982;28;20254;-64
2021/10/22 01:53:49;;;;;;;1.97;1.40;;;8.00;99.90;;;;;;4958451;28;20627;-64
2021/10/22 01:56:15;;;;;;;2.30;1.97;;;8.00;99.90;;;;;;4956230;28;20418;-64
2021/10/22 01:58:40;;;;;;;2.40;1.30;;;8.00;99.90;;;;;;4972452;28;20233;-64
2021/10/22 02:01:06;;;;;;;2.30;0.90;;;8.00;99.90;;;;;;4955208;28;20219;-63
2021/10/22 02:03:31;;;;;;;4.23;3.40;;;8.00;99.90;;;;;;4958400;28;20199;-64
2021/10/22 02:05:57;;;;;;;2.37;1.10;;;8.10;99.90;;;;;;4959477;28;20207;-64
2021/10/22 02:08:23;;;;;;;3.33;1.47;;;8.10;99.90;;;;;;4955284;28;20289;-62
2021/10/22 02:10:48;;;;;;;2.87;1.20;;;8.10;99.90;;;;;;4955840;28;21280;-63
2021/10/22 02:13:16;;;;;;;3.37;0.97;;;8.10;99.90;;;;;;4951766;28;21042;-63
2021/10/22 02:15:42;;;;;;;5.47;1.27;;;8.10;99.90;;;;;;4957686;28;20285;-64
2021/10/22 02:18:10;;;;;;;4.37;1.30;;;8.10;99.90;;;;;;4959377;28;20627;-64
2021/10/22 02:20:39;;;;;;;2.40;1.00;;;8.10;99.90;;;;;;4971056;28;20257;-63
2021/10/22 02:23:07;;;;;;;3.20;1.00;;;8.10;99.90;;;;;;4973069;28;20622;-63
2021/10/22 02:25:35;;;;;;;1.53;0.70;;;8.20;99.90;;;;;;4958292;28;20673;-64
2021/10/22 02:28:04;;;;;;;3.67;1.00;;;8.20;99.90;;;;;;4971046;28;20615;-64
2021/10/22 02:30:32;;;;;;;6.10;1.00;;;8.20;99.90;;;;;;4957167;28;20742;-64
2021/10/22 02:32:58;;;;;;;1.47;1.00;;;8.20;99.90;;;;;;4959053;28;20673;-64
2021/10/22 02:35:26;;;;;;;7.60;1.37;;;8.20;99.90;;;;;;4959137;28;21159;-64
2021/10/22 02:37:52;;;;;;;1.70;0.70;;;8.30;99.90;;;;;;4959297;28;21636;-64
2021/10/22 02:40:18;;;;;;;5.10;1.60;;;8.30;99.90;;;;;;4955982;28;20626;-64
2021/10/22 02:42:44;;;;;;;4.30;0.93;;;8.30;99.90;;;;;;4958479;28;20630;-64
2021/10/22 02:45:19;;;;;;;2.87;1.23;;;8.30;99.90;;;;;;4955313;28;20664;-64
2021/10/22 02:47:47;;;;;;;3.80;0.90;;;8.20;99.90;;;;;;4957482;28;20261;-64
2021/10/22 02:50:17;;;;;;;3.60;1.47;;;8.30;99.90;;;;;;4956295;28;21577;-63
2021/10/22 02:52:43;;;;;;;8.40;1.70;;;8.30;99.90;;;;;;4957514;28;20645;-64
2021/10/22 02:55:11;;;;;;;3.90;1.20;;;8.30;99.90;;;;;;4958270;28;20686;-64
2021/10/22 02:57:37;;;;;;;1.77;1.00;;;8.30;99.90;;;;;;4956841;28;20282;-63
2021/10/22 03:00:07;;;;;;;1.70;1.00;;;8.30;99.90;;;;;;4971059;28;21045;-64
2021/10/22 03:02:33;;;;;;;2.77;1.27;;;8.30;99.90;;;;;;4973536;28;20214;-64
2021/10/22 03:04:58;;;;;;;2.93;1.10;;;8.50;99.90;;;;;;4971563;28;21086;-64
2021/10/22 03:07:24;;;;;;;3.47;1.13;;;8.30;99.90;;;;;;4954325;28;21095;-64
2021/10/22 03:09:49;;;;;;;3.17;1.00;;;8.30;99.90;;;;;;4959524;28;20269;-63
2021/10/22 03:12:15;;;;;;;2.90;1.20;;;8.20;99.90;;;;;;4956520;28;20254;-64
2021/10/22 03:14:43;;;;;;;2.20;1.23;;;8.30;99.90;;;;;;4957988;28;20656;-64
2021/10/22 03:17:11;;;;;;;5.03;1.20;;;8.40;99.90;;;;;;4959865;28;20222;-64
2021/10/22 03:19:36;;;;;;;2.60;0.97;;;8.30;99.90;;;;;;4958492;28;20645;-64
2021/10/22 03:22:03;;;;;;;2.63;1.20;;;8.30;99.90;;;;;;4956016;28;21270;-64
2021/10/22 03:24:31;;;;;;;2.47;1.23;;;8.30;99.90;;;;;;4956876;28;20226;-64
2021/10/22 03:26:56;;;;;;;5.40;1.33;;;8.30;99.90;;;;;;4958300;28;20653;-64
2021/10/22 03:29:22;;;;;;;3.33;1.50;;;8.30;99.90;;;;;;4959728;28;20724;-64
2021/10/22 03:31:47;;;;;;;4.90;1.30;;;8.30;99.90;;;;;;4958653;28;20250;-64
2021/10/22 03:34:14;;;;;;;5.57;1.30;;;8.30;99.90;;;;;;4972718;28;20195;-64
2021/10/22 03:36:41;;;;;;;4.70;1.30;;;8.30;99.90;;;;;;4962289;28;20318;-64
2021/10/22 03:39:09;;;;;;;3.20;1.20;;;8.30;99.90;;;;;;4957646;28;20622;-64
2021/10/22 03:41:35;;;;;;;4.13;1.60;;;8.40;99.90;;;;;;4959840;28;20640;-62
2021/10/22 03:44:00;;;;;;;3.13;1.43;;;8.40;99.90;;;;;;4956061;28;20659;-64
2021/10/22 03:46:26;;;;;;;4.33;1.30;;;8.40;99.90;;;;;;4956024;28;20285;-64
2021/10/22 03:48:57;;;;;;;1.87;1.30;;;8.40;99.90;;;;;;4956553;28;20204;-64
2021/10/22 03:51:22;;;;;;;4.77;1.70;;;8.40;99.90;;;;;;4954955;28;20246;-64
2021/10/22 03:53:48;;;;;;;5.47;1.97;;;8.30;99.90;;;;;;4954348;28;20626;-64
2021/10/22 03:56:16;;;;;;;6.47;1.70;;;8.40;99.90;;;;;;4960317;28;20207;-65
2021/10/22 03:58:49;;;;;;;5.10;1.50;;;8.40;99.90;;;;;;4957691;28;20245;-64
2021/10/22 04:01:15;;;;;;;4.80;1.93;;;8.40;99.90;;;;;;4958266;28;20638;-64
2021/10/22 04:03:41;;;;;;;4.43;2.27;;;8.40;99.90;;;;;;4955934;28;20611;-64
2021/10/22 04:06:07;;;;;;;4.73;1.50;;;8.30;99.90;;;;;;4958778;28;20203;-64
2021/10/22 04:08:32;;;;;;;4.03;1.20;;;8.30;99.90;;;;;;4955846;28;20702;-64
2021/10/22 04:10:58;;;;;;;4.97;1.67;;;8.40;99.90;;;;;;4955099;28;20256;-64
2021/10/22 04:13:24;;;;;;;4.20;1.40;;;8.40;99.90;;;;;;4972369;28;20286;-64
2021/10/22 04:15:50;;;;;;;5.87;1.83;;;8.30;99.90;;;;;;4957229;28;20229;-64
2021/10/22 04:18:16;;;;;;;4.73;1.83;;;8.60;99.90;;;;;;4957773;28;20202;-63
2021/10/22 04:20:42;;;;;;;2.50;1.73;;;8.30;99.90;;;;;;4973765;28;20783;-65
2021/10/22 04:23:09;;;;;;;4.50;1.30;;;8.30;99.90;;;;;;4960293;28;20621;-64
2021/10/22 04:25:34;;;;;;;4.33;1.70;;;8.30;99.90;;;;;;4960488;28;20674;-65
2021/10/22 04:28:01;;;;;;;5.30;1.87;;;8.30;99.90;;;;;;4960075;28;20623;-65
2021/10/22 04:30:27;;;;;;;3.57;1.50;;;8.30;99.90;;;;;;4962895;28;20261;-65
2021/10/22 04:32:55;;;;;;;6.50;1.70;;;8.30;99.90;;;;;;4958727;28;20614;-65
2021/10/22 04:35:21;;;;;;;4.40;1.70;;;8.30;99.90;;;;;;4960480;28;20595;-65
2021/10/22 04:37:58;;;;;;;;;;;;;;;;;;;;;
2021/10/22 04:40:31;;;;;;;2.50;1.50;;;8.30;99.90;;;;;;4962023;28;20235;-65
2021/10/22 04:43:10;;;;;;;5.57;1.60;;;8.30;99.90;;;;;;4961198;28;20190;-64
2021/10/22 04:45:38;;;;;;;6.33;3.20;;;8.40;99.90;;;;;;4956239;28;20688;-64
2021/10/22 04:48:08;;;;;;;5.53;1.90;;;8.30;99.90;;;;;;4960042;28;20615;-65
2021/10/22 04:50:40;;;;;;;4.43;1.23;;;8.40;99.90;;;;;;4959225;28;20629;-65
2021/10/22 04:53:06;;;;;;;4.40;1.70;;;8.30;99.90;;;;;;4974949;28;21194;-65
2021/10/22 04:55:34;;;;;;;3.37;1.60;;;8.40;99.90;;;;;;4956759;28;20638;-65
2021/10/22 04:58:02;;;;;;;3.00;1.33;;;8.30;99.90;;;;;;4956797;28;20618;-63
2021/10/22 05:00:28;;;;;;;5.77;1.60;;;8.30;99.90;;;;;;4966851;28;21230;-65
2021/10/22 05:02:56;;;;;;;8.70;2.00;;;8.40;99.90;;;;;;4956641;28;20621;-64
2021/10/22 05:05:21;;;;;;;3.73;1.80;;;8.50;99.90;;;;;;4970140;28;20254;-64
2021/10/22 05:07:47;;;;;;;3.83;1.70;;;8.50;99.90;;;;;;4956345;28;21190;-65
2021/10/22 05:10:13;;;;;;;5.23;1.57;;;8.50;99.90;;;;;;4958677;28;20226;-64
2021/10/22 05:12:41;;;;;;;4.53;1.37;;;8.50;99.90;;;;;;4952337;28;20184;-63
2021/10/22 05:15:10;;;;;;;3.77;1.53;;;8.50;99.90;;;;;;4955776;28;20198;-65
2021/10/22 05:17:36;;;;;;;4.90;1.70;;;8.50;99.90;;;;;;4955468;28;20634;-64
2021/10/22 05:20:07;;;;;;;6.27;2.07;;;8.50;99.90;;;;;;4950873;28;20609;-65
2021/10/22 05:22:36;;;;;;;5.50;1.67;;;8.60;99.90;;;;;;4951564;28;20574;-64
2021/10/22 05:25:11;;;;;;;5.00;1.63;;;8.60;99.90;;;;;;4955752;28;21252;-64
2021/10/22 05:27:36;;;;;;;7.43;2.23;;;8.50;99.90;;;;;;4942296;28;20621;-63
2021/10/22 05:30:10;;;;;;;5.33;1.77;;;8.50;99.90;;;;;;4936995;28;20615;-63
2021/10/22 05:32:53;;;;;;;7.93;2.33;;;8.50;99.90;;;;;;4947629;28;20195;-63
2021/10/22 05:35:19;;;;;;;4.20;2.03;;;8.50;99.90;;;;;;4951254;28;20595;-65
2021/10/22 05:37:44;;;;;;;4.93;2.03;;;8.50;99.90;;;;;;4955830;28;20634;-66
2021/10/22 05:40:10;;;;;;;4.47;2.27;;;8.60;99.90;;;;;;4954976;28;20231;-66
2021/10/22 05:42:36;;;;;;;6.60;1.90;;;8.60;99.90;;;;;;4955677;28;20191;-66
2021/10/22 05:45:02;;;;;;;3.83;2.03;;;8.60;99.90;;;;;;4972951;28;20211;-66
2021/10/22 05:47:28;;;;;;;5.53;2.30;;;8.50;99.90;;;;;;4952599;28;20215;-66
2021/10/22 05:49:54;;;;;;;4.50;1.90;;;8.50;99.90;;;;;;4952176;28;20618;-66
2021/10/22 05:52:19;;;;;;;6.50;2.17;;;8.50;99.90;;;;;;4953159;28;20224;-65
2021/10/22 05:54:45;;;;;;;5.40;1.80;;;8.50;99.90;;;;;;4952993;28;20198;-66
2021/10/22 05:57:11;;;;;;;5.60;2.00;;;8.50;99.90;;;;;;4956631;28;20223;-66
2021/10/22 05:59:36;;;;;;;6.07;2.17;;;8.50;99.90;;;;;;4956158;28;21030;-65
2021/10/22 06:02:02;;;;;;;4.67;1.60;;;8.50;99.90;;;;;;4952788;28;20230;-66
2021/10/22 06:04:28;;;;;;;5.53;2.20;;;8.50;99.90;;;;;;4948892;28;20208;-66
2021/10/22 06:06:54;;;;;;;7.20;2.60;;;8.50;99.90;;;;;;4955897;28;20211;-66
2021/10/22 06:09:19;;;;;;;5.77;1.93;;;8.50;99.90;;;;;;4956199;28;20179;-66
2021/10/22 06:11:48;;;;;;;6.07;2.40;;;8.60;99.90;;;;;;4956182;28;20222;-66
2021/10/22 06:14:14;;;;;;;3.13;1.77;;;8.50;99.90;;;;;;4953410;28;20218;-66
2021/10/22 06:16:40;;;;;;;8.60;2.40;;;8.50;99.90;;;;;;4952614;28;20639;-66
2021/10/22 06:19:05;;;;;;;6.80;1.87;;;8.60;99.90;;;;;;4956694;28;20210;-66
2021/10/22 06:24:02;;;;;;;6.00;2.07;;;8.60;99.90;;;;;;4959547;28;20215;-66
2021/10/22 06:26:32;;;;;;;4.60;1.73;;;8.60;99.90;;;;;;4950473;28;20649;-66
2021/10/22 06:29:00;;;;;;;6.97;2.00;;;8.70;99.90;;;;;;4958469;28;20607;-66
2021/10/22 06:31:26;;;;;;;7.63;2.73;;;8.70;99.90;;;;;;4951042;28;21237;-65
2021/10/22 06:33:52;;;;;;;6.33;2.30;;;8.70;99.90;;;;;;4955457;28;20634;-66
2021/10/22 06:36:18;;;;;;;4.67;2.03;;;8.70;99.90;;;;;;4959524;28;20665;-66
2021/10/22 06:38:44;;;;;;;8.83;1.90;;;8.80;99.90;;;;;;4969809;28;21183;-66
2021/10/22 06:41:10;;;;;;;5.40;2.40;;;8.80;99.90;;;;;;4954879;28;20259;-66
2021/10/22 06:43:37;;;;;;;4.77;2.10;;;8.80;99.90;;;;;;4957488;28;20187;-65
2021/10/22 06:46:03;;;;;;;7.13;2.17;;;8.80;99.90;;;;;;4955073;28;21032;-66
2021/10/22 06:48:29;;;;;;;6.97;2.33;;;8.80;99.90;;;;;;4950626;28;20619;-66
2021/10/22 06:50:55;;;;;;;4.67;1.80;;;8.80;99.90;;;;;;4955166;28;20682;-66
2021/10/22 06:53:21;;;;;;;7.13;2.60;;;8.80;99.90;;;;;;4957752;28;20617;-66
2021/10/22 06:55:48;;;;;;;5.13;2.20;;;8.80;99.90;;;;;;4957566;28;20246;-66
2021/10/22 06:58:14;;;;;;;7.60;2.13;;;8.80;99.90;;;;;;4957508;28;20729;-66
2021/10/22 07:00:40;;;;;;;5.67;2.50;;;8.90;99.90;;;;;;4957290;28;20635;-66
2021/10/22 07:03:06;;;;;;;5.23;1.77;;;9.00;99.90;;;;;;4963554;28;21292;-66
2021/10/22 07:07:58;;;;;;;3.40;2.07;;;9.10;99.90;;;;;;4953959;28;20674;-66
2021/10/22 07:10:23;;;;;;;6.10;2.03;;;9.10;99.90;;;;;;4961373;28;20223;-66
2021/10/22 07:12:49;;;;;;;5.60;2.13;;;9.20;99.90;;;;;;4958118;28;20617;-66
2021/10/22 07:15:16;;;;;;;5.30;1.80;;;9.10;99.90;;;;;;4954462;28;20191;-66
2021/10/22 07:17:44;;;;;;;4.00;1.93;;;9.20;99.90;;;;;;4955467;28;20730;-66
2021/10/22 07:20:12;;;;;;;7.33;2.13;;;9.20;99.90;;;;;;4955433;28;20702;-66
2021/10/22 07:22:47;;;;;;;5.60;2.47;;;9.20;99.90;;;;;;4955713;28;20611;-66
2021/10/22 07:25:14;;;;;;;3.83;1.73;;;9.30;99.90;;;;;;4964303;28;24100;-66
2021/10/22 07:27:40;;;;;;;6.87;2.00;;;9.30;99.90;;;;;;4955872;28;20614;-66
2021/10/22 07:30:06;;;;;;;5.23;2.37;;;9.30;99.90;;;;;;4955308;28;20624;-66
2021/10/22 07:32:31;;;;;;;6.37;2.10;;;9.30;99.90;;;;;;4955806;28;20190;-66
2021/10/22 07:34:57;;;;;;;8.97;1.83;;;9.30;99.90;;;;;;4956852;28;20618;-66
2021/10/22 07:37:23;;;;;;;6.53;1.83;;;9.40;99.90;;;;;;4959366;28;20247;-66
2021/10/22 07:39:49;;;;;;;4.77;2.07;;;9.20;99.90;;;;;;4953110;28;20183;-66
2021/10/22 07:42:14;;;;;;;2.97;1.50;;;9.20;99.90;;;;;;4955717;28;20235;-66
2021/10/22 07:44:40;;;;;;;9.37;2.80;;;9.20;99.90;;;;;;4948673;28;20679;-66
2021/10/22 07:47:06;;;;;;;3.20;1.97;;;9.20;99.90;;;;;;4955804;28;20203;-66
2021/10/22 07:49:32;;;;;;;4.83;1.60;;;9.20;99.90;;;;;;4950892;28;20606;-66
2021/10/22 07:51:59;;;;;;;4.70;2.27;;;9.20;99.90;;;;;;4970333;28;21232;-66
2021/10/22 07:54:24;;;;;;;4.80;2.50;;;9.30;99.90;;;;;;4951083;28;23121;-66
2021/10/22 07:56:50;;;;;;;5.13;1.70;;;9.20;99.90;;;;;;4956229;28;20670;-66
2021/10/22 07:59:16;;;;;;;4.40;1.97;;;9.30;99.90;;;;;;4955421;28;20207;-66
2021/10/22 08:01:43;;;;;;;5.30;1.70;;;9.30;99.90;;;;;;4967193;28;20278;-66
2021/10/22 08:04:09;;;;;;;6.37;2.10;;;9.30;99.90;;;;;;4967394;28;20688;-66
2021/10/22 08:06:37;;;;;;;4.63;1.50;;;9.40;99.90;;;;;;4953755;28;20667;-66
2021/10/22 08:09:03;;;;;;;3.63;1.70;;;9.50;99.90;;;;;;4952513;28;20755;-67
2021/10/22 08:11:28;;;;;;;3.80;1.83;;;9.40;99.90;;;;;;4953133;28;20630;-66
2021/10/22 08:13:54;;;;;;;7.57;2.03;;;9.50;99.90;;;;;;4955667;28;20619;-65
2021/10/22 08:16:20;;;;;;;6.03;1.90;;;9.40;99.90;;;;;;4955002;28;20218;-65
2021/10/22 08:18:47;;;;;;;3.90;1.53;;;9.40;99.90;;;;;;4955625;28;20197;-66
2021/10/22 08:22:25;;;;;;;8.80;2.20;;;9.40;99.90;;;;;;4951810;28;20238;-66
2021/10/22 08:24:08;;;;;;;6.33;1.60;;;9.40;99.90;;;;;;4946451;28;20654;-65
2021/10/22 08:26:34;;;;;;;4.40;1.80;;;9.40;99.90;;;;;;4955302;28;20638;-66
2021/10/22 08:28:59;;;;;;;6.33;2.20;;;9.40;99.90;;;;;;4954980;28;20632;-66
2021/10/22 08:31:26;;;;;;;5.07;1.67;;;9.40;99.90;;;;;;4957934;28;20219;-66
2021/10/22 08:33:54;;;;;;;3.90;2.07;;;9.50;99.90;;;;;;4956510;28;20189;-66
2021/10/22 08:36:19;;;;;;;8.00;2.57;;;9.60;99.90;;;;;;4956432;28;20644;-66
2021/10/22 08:38:45;;;;;;;6.80;2.47;;;9.60;99.90;;;;;;4958405;28;21001;-66
2021/10/22 08:41:15;;;;;;;4.60;1.83;;;9.70;99.90;;;;;;4956359;28;20246;-66
2021/10/22 08:43:41;;;;;;;6.63;2.07;;;9.80;99.90;;;;;;4954578;28;20204;-66
2021/10/22 08:46:13;;;;;;;3.80;2.13;;;9.80;99.90;;;;;;4953901;28;20670;-66
2021/10/22 08:48:42;;;;;;;3.00;1.70;;;9.80;99.90;;;;;;4968812;28;20284;-66
2021/10/22 08:51:07;;;;;;;6.10;2.30;;;9.90;99.90;;;;;;4949006;28;21249;-66
2021/10/22 08:53:36;;;;;;;5.70;2.10;;;9.80;99.90;;;;;;4956634;28;20603;-66
2021/10/22 08:56:03;;;;;;;7.57;3.03;;;9.90;99.90;;;;;;4952532;28;20211;-66
2021/10/22 08:58:30;;;;;;;5.67;1.90;;;9.80;99.90;;;;;;4954297;28;20634;-66
2021/10/22 09:00:56;;;;;;;4.53;2.17;;;9.80;99.90;;;;;;4950219;28;20642;-66
2021/10/22 09:03:22;;;;;;;3.70;1.90;;;9.80;99.90;;;;;;4956300;28;21288;-66
2021/10/22 09:06:01;;;;;;;4.70;1.83;;;9.80;99.90;;;;;;4955793;28;20621;-66
2021/10/22 09:08:37;;;;;;;4.13;2.20;;;9.70;99.90;;;;;;4961578;28;20206;-66
2021/10/22 09:11:23;;;;;;;3.47;1.80;;;9.60;99.90;;;;;;4943745;28;20627;-66
2021/10/22 09:14:14;;;;;;;6.73;1.87;;;9.70;99.90;;;;;;4959249;28;21504;-65
2021/10/22 09:16:49;;;;;;;2.70;1.60;;;9.80;99.90;;;;;;4959482;28;20630;-66
2021/10/22 09:19:36;;;;;;;4.97;2.07;;;9.70;99.90;;;;;;4973620;28;20622;-66
2021/10/22 09:22:32;;;;;;;2.30;1.40;;;9.70;99.90;;;;;;4960046;28;20635;-66
2021/10/22 09:25:01;;;;;;;4.33;2.23;;;9.70;99.90;;;;;;4972995;28;20657;-66
2021/10/22 09:27:47;;;;;;;8.07;1.93;;;9.60;99.90;;;;;;4957975;28;20653;-66
2021/10/22 09:30:30;;;;;;;2.87;1.83;;;9.60;99.90;;;;;;4960773;28;21206;-66
2021/10/22 09:32:58;;;;;;;4.77;1.57;;;9.50;99.90;;;;;;4957806;28;20609;-66
2021/10/22 09:35:38;;;;;;;6.77;1.90;;;9.50;99.90;;;;;;4960789;28;20629;-67
2021/10/22 09:38:09;;;;;;;6.10;1.67;;;9.40;99.90;;;;;;4961138;28;20997;-66
2021/10/22 09:40:36;;;;;;;3.73;1.67;;;9.40;99.90;;;;;;4960596;28;20654;-65
2021/10/22 09:43:16;;;;;;;5.20;1.60;;;9.40;99.90;;;;;;4954013;28;20634;-66
2021/10/22 09:45:46;;;;;;;6.17;2.60;;;9.50;99.90;;;;;;4955887;28;20700;-66
2021/10/22 09:48:32;;;;;;;3.47;1.87;;;9.50;99.90;;;;;;4957944;28;20605;-67
2021/10/22 09:51:24;;;;;;;4.60;1.77;;;9.50;99.90;;;;;;4954476;28;20662;-66
2021/10/22 09:53:50;;;;;;;2.57;1.70;;;9.50;99.90;;;;;;4960832;28;21166;-66
2021/10/22 09:56:27;;;;;;;4.67;2.13;;;9.50;99.90;;;;;;4958243;28;20709;-66
2021/10/22 09:59:07;;;;;;;3.73;1.57;;;9.60;99.90;;;;;;4957771;28;20634;-67
2021/10/22 10:01:41;;;;;;;7.73;1.97;;;9.60;99.90;;;;;;4954416;28;21016;-64
2021/10/22 10:04:13;;;;;;;2.47;1.50;;;9.60;99.90;;;;;;4962498;28;20650;-65
2021/10/22 10:06:39;;;;;;;3.20;1.50;;;9.60;99.90;;;;;;4960050;28;20653;-65
2021/10/22 10:09:08;;;;;;;4.93;1.60;;;9.60;99.90;;;;;;4956924;28;20630;-69
2021/10/22 10:11:35;;;;;;;4.03;1.50;;;9.60;99.90;;;;;;4958199;28;20642;-67
2021/10/22 10:14:01;;;;;;;1.73;1.37;;;9.50;99.90;;;;;;4960826;28;20615;-66
2021/10/22 10:16:32;;;;;;;4.17;1.90;;;9.50;99.90;;;;;;4960241;28;20638;-66
2021/10/22 10:19:04;;;;;;;5.93;1.40;;;9.50;99.90;;;;;;4956283;28;20644;-66
2021/10/22 10:21:34;;;;;;;2.50;1.13;;;9.50;99.90;;;;;;4957630;28;21020;-66
2021/10/22 10:24:00;;;;;;;1.67;1.40;;;9.50;99.90;;;;;;4974721;28;20708;-66
2021/10/22 10:26:31;;;;;;;2.30;1.47;;;9.50;99.90;;;;;;4954712;28;20801;-66
2021/10/22 10:28:59;;;;;;;3.83;1.50;;;9.50;99.90;;;;;;4958921;28;20607;-66
2021/10/22 10:31:27;;;;;;;2.93;1.10;;;9.50;99.90;;;;;;4959375;28;20642;-66
2021/10/22 10:33:55;;;;;;;1.90;0.90;;;9.50;99.90;;;;;;4960183;28;20637;-66
2021/10/22 10:36:44;;;;;;;2.10;1.27;;;9.50;99.90;;;;;;4957508;28;21192;-66
2021/10/22 10:39:10;;;;;;;1.30;1.10;;;9.60;99.90;;;;;;4974660;28;20694;-66
2021/10/22 10:41:35;;;;;;;1.77;1.20;;;9.60;99.90;;;;;;4958768;28;20734;-66
2021/10/22 10:44:26;;;;;;;1.37;1.10;;;9.60;99.90;;;;;;4959140;28;20718;-67
2021/10/22 10:46:52;;;;;;;1.60;1.00;;;9.70;99.90;;;;;;4972426;28;20573;-66
2021/10/22 10:49:53;;;;;;;1.50;1.00;;;9.60;99.90;;;;;;4959094;28;20658;-66
2021/10/22 10:52:37;;;;;;;2.00;0.93;;;9.70;99.90;;;;;;4925314;29;20231;-66
2021/10/22 10:55:40;;;;;;;2.20;1.10;;;9.60;99.90;;;;;;4956636;28;20683;-66
2021/10/22 10:58:08;;;;;;;1.80;0.97;;;9.50;99.90;;;;;;4957396;28;20591;-66
2021/10/22 11:00:39;;;;;;;2.83;1.03;;;9.50;99.90;;;;;;4971036;28;20635;-66
2021/10/22 11:03:06;;;;;;;2.37;1.03;;;9.50;99.90;;;;;;4958315;28;20618;-66
2021/10/22 11:05:58;;;;;;;3.13;0.90;;;9.50;99.90;;;;;;4955039;28;20697;-66
2021/10/22 11:08:25;;;;;;;0.93;0.77;;;9.50;99.90;;;;;;4957877;28;20681;-66
2021/10/22 11:10:57;;;;;;;1.70;0.90;;;9.60;99.90;;;;;;4955568;28;20631;-66
2021/10/22 11:13:28;;;;;;;2.73;1.00;;;9.70;99.90;;;;;;4976457;28;20615;-66
2021/10/22 11:15:54;;;;;;;2.10;0.90;;;9.70;99.90;;;;;;4959550;28;20633;-66
2021/10/22 11:18:21;;;;;;;2.67;1.00;;;9.70;99.90;;;;;;4954764;28;20618;-66
2021/10/22 11:20:50;;;;;;;2.10;1.13;;;9.80;99.90;;;;;;4956749;28;20226;-66
2021/10/22 11:23:16;;;;;;;3.20;1.20;;;9.80;99.90;;;;;;4957799;28;20622;-66
2021/10/22 11:25:41;;;;;;;3.37;1.03;;;9.90;99.90;;;;;;4955501;28;21254;-66
2021/10/22 11:28:12;;;;;;;2.60;1.20;;;9.90;99.90;;;;;;4974864;28;20190;-68
2021/10/22 11:30:51;;;;;;;2.37;1.13;;;9.90;99.90;;;;;;4957175;28;20215;-66
2021/10/22 11:33:17;;;;;;;3.80;1.27;;;10.00;99.90;;;;;;4955385;28;20647;-66
2021/10/22 11:35:43;;;;;;;3.97;1.30;;;10.10;99.90;;;;;;4958933;28;21025;-66
2021/10/22 11:38:08;;;;;;;4.57;2.40;;;10.10;99.90;;;;;;4956879;28;20757;-66
2021/10/22 11:40:34;;;;;;;1.93;1.07;;;10.10;99.90;;;;;;4955288;28;20247;-66
2021/10/22 11:43:10;;;;;;;2.60;1.30;;;10.20;99.90;;;;;;4970748;28;20681;-66
2021/10/22 11:45:36;;;;;;;3.00;1.20;;;10.20;99.90;;;;;;4958203;28;20214;-67
2021/10/22 11:48:01;;;;;;;2.73;1.40;;;10.30;99.90;;;;;;4955776;28;21119;-66
2021/10/22 11:50:33;;;;;;;2.27;1.10;;;10.20;99.90;;;;;;4954650;28;20359;-66
2021/10/22 11:53:04;;;;;;;5.77;1.30;;;10.20;99.90;;;;;;4952509;28;20183;-66
2021/10/22 11:55:30;;;;;;;2.37;1.30;;;10.20;99.90;;;;;;4950957;28;21181;-66
2021/10/22 11:58:02;;;;;;;2.87;1.13;;;10.10;99.90;;;;;;4955018;28;22133;-66
2021/10/22 12:00:28;;;;;;;1.83;1.10;;;10.20;99.90;;;;;;4955917;28;20654;-66
2021/10/22 12:02:53;;;;;;;3.53;1.00;;;10.20;99.90;;;;;;4955842;28;20638;-66
2021/10/22 12:05:19;;;;;;;0.70;0.57;;;10.10;99.90;;;;;;4967833;28;20945;-66
2021/10/22 12:07:49;;;;;;;2.47;0.80;;;10.20;99.90;;;;;;4952771;28;20226;-66
2021/10/22 12:10:16;;;;;;;2.20;0.70;;;9.80;99.90;;;;;;4951358;28;20239;-66
2021/10/22 12:12:48;;;;;;;1.47;0.60;;;9.60;99.90;;;;;;4952672;28;20709;-66
2021/10/22 12:15:26;;;;;;;1.13;0.80;;;9.40;99.90;;;;;;4944346;28;20603;-66
2021/10/22 12:17:53;;;;;;;1.10;0.70;;;9.20;99.90;;;;;;4951080;28;20721;-66
2021/10/22 12:20:19;;;;;;;2.10;0.70;;;9.20;99.90;;;;;;4967030;28;20638;-66
2021/10/22 12:22:48;;;;;;;1.40;0.60;;;9.10;99.90;;;;;;4951846;28;20982;-66
2021/10/22 12:25:22;;;;;;;2.43;0.70;;;9.10;99.90;;;;;;4964865;28;20211;-66
2021/10/22 12:27:49;;;;;;;2.50;0.77;;;9.10;99.90;;;;;;4947810;28;20622;-66
2021/10/22 12:30:17;;;;;;;1.93;0.80;;;9.10;99.90;;;;;;4948779;28;20631;-67
2021/10/22 12:32:48;;;;;;;1.90;0.90;;;9.10;99.90;;;;;;4953075;28;20614;-66
2021/10/22 12:35:18;;;;;;;2.70;1.10;;;9.10;99.90;;;;;;4967380;28;20633;-66
2021/10/22 12:37:58;;;;;;;2.03;0.80;;;9.10;99.90;;;;;;4947125;28;21272;-66
2021/10/22 12:40:26;;;;;;;1.90;0.83;;;9.10;99.90;;;;;;4945283;28;20635;-66
2021/10/22 12:43:04;;;;;;;0.90;0.80;;;9.10;99.90;;;;;;4956206;28;20622;-66
2021/10/22 12:45:30;;;;;;;1.83;1.00;;;9.00;99.90;;;;;;4966141;28;22207;-66
2021/10/22 12:48:03;;;;;;;2.47;1.00;;;9.10;99.90;;;;;;4945733;28;20634;-66
2021/10/22 12:50:33;;;;;;;2.97;0.80;;;9.10;99.90;;;;;;4948113;28;20233;-66
2021/10/22 12:53:01;;;;;;;3.50;0.90;;;9.10;99.90;;;;;;4949326;28;20603;-66
2021/10/22 12:55:27;;;;;;;2.10;0.83;;;9.10;99.90;;;;;;4949443;28;20630;-65
2021/10/22 12:58:18;;;;;;;2.70;1.20;;;9.10;99.90;;;;;;4953560;28;20618;-66
2021/10/22 13:10:23;;;;;;;2.20;1.53;;;9.20;99.90;;;;;;4989183;28;20697;-65
2021/10/22 13:12:58;;;;;;;2.43;1.07;;;9.30;99.90;;;;;;4987715;28;20649;-67
2021/10/22 13:21:12;;;;;;;3.43;1.30;;;9.80;99.90;;;;;;4891671;29;21347;-66
2021/10/22 13:23:37;;;;;;;4.37;1.20;;;9.90;99.90;;;;;;4920754;28;20653;-67
2021/10/22 13:26:03;;;;;;;5.07;1.30;;;10.00;99.90;;;;;;4968138;28;20281;-67